createdAt,value
2022-10-04T00:00:45.008Z,1.70
2022-10-04T00:05:14.220Z,1.70
2022-10-04T00:09:24.546Z,1.60
2022-10-04T00:13:33.427Z,1.80
2022-10-04T00:17:42.014Z,1.90
2022-10-04T00:22:20.348Z,2.00
2022-10-04T00:27:11.518Z,1.50
2022-10-04T00:31:27.301Z,1.50
2022-10-04T00:35:52.087Z,1.50
2022-10-04T00:40:15.113Z,1.70
2022-10-04T00:44:28.756Z,2.00
2022-10-04T00:48:40.453Z,1.60
2022-10-04T00:52:51.557Z,1.50
2022-10-04T00:57:01.150Z,1.60
2022-10-04T01:01:10.201Z,1.80
2022-10-04T01:05:20.294Z,1.70
2022-10-04T01:09:29.155Z,1.60
2022-10-04T01:13:42.613Z,1.80
2022-10-04T01:18:09.588Z,1.70
2022-10-04T01:22:35.815Z,2.00
2022-10-04T01:26:46.846Z,1.70
2022-10-04T01:30:54.936Z,1.90
2022-10-04T01:35:02.438Z,1.50
2022-10-04T01:39:10.422Z,2.40
2022-10-04T01:43:22.632Z,1.80
2022-10-04T01:47:34.667Z,2.00
2022-10-04T01:51:48.116Z,1.90
2022-10-04T01:55:58.214Z,2.00
2022-10-04T02:00:10.719Z,2.40
2022-10-04T02:04:22.592Z,2.20
2022-10-04T02:08:32.607Z,2.50
2022-10-04T02:12:42.886Z,2.50
2022-10-04T02:16:54.301Z,2.10
2022-10-04T02:21:02.669Z,2.30
2022-10-04T02:25:13.806Z,2.50
2022-10-04T02:29:22.470Z,2.10
2022-10-04T02:33:31.448Z,2.70
2022-10-04T02:37:41.758Z,2.10
2022-10-04T02:41:55.657Z,2.30
2022-10-04T02:46:08.713Z,2.20
2022-10-04T02:50:26.118Z,2.10
2022-10-04T02:54:37.793Z,2.30
2022-10-04T02:58:45.795Z,2.20
2022-10-04T03:03:17.005Z,2.20
2022-10-04T03:07:26.757Z,2.50
2022-10-04T03:11:37.716Z,2.50
2022-10-04T03:15:46.300Z,2.60
2022-10-04T03:19:53.931Z,2.60
2022-10-04T03:24:02.581Z,3.20
2022-10-04T03:28:10.419Z,2.80
2022-10-04T03:32:20.003Z,2.80
2022-10-04T03:36:28.973Z,2.50
2022-10-04T03:40:38.874Z,2.30
2022-10-04T03:44:48.882Z,2.70
2022-10-04T03:48:58.341Z,3.10
2022-10-04T03:53:10.631Z,2.30
2022-10-04T03:57:19.029Z,2.30
2022-10-04T04:01:37.948Z,2.30
2022-10-04T04:05:50.907Z,2.00
2022-10-04T04:10:03.889Z,2.00
2022-10-04T04:14:15.682Z,2.00
2022-10-04T04:18:25.383Z,2.20
2022-10-04T04:22:39.686Z,1.70
2022-10-04T04:26:49.410Z,1.90
2022-10-04T04:31:00.235Z,1.90
2022-10-04T04:35:22.718Z,2.30
2022-10-04T04:39:41.499Z,2.10
2022-10-04T04:43:52.091Z,1.80
2022-10-04T04:48:04.358Z,1.90
2022-10-04T04:52:18.763Z,1.90
2022-10-04T04:56:31.457Z,2.40
2022-10-04T05:00:40.913Z,2.50
2022-10-04T05:04:50.873Z,2.10
2022-10-04T05:08:58.378Z,1.50
2022-10-04T05:13:08.170Z,1.60
2022-10-04T05:17:22.198Z,1.70
2022-10-04T05:21:42.807Z,2.00
2022-10-04T05:25:51.309Z,2.30
2022-10-04T05:30:06.121Z,1.80
2022-10-04T05:34:24.285Z,1.80
2022-10-04T05:38:43.761Z,1.60
2022-10-04T05:43:03.377Z,2.40
2022-10-04T05:47:14.755Z,1.80
2022-10-04T05:51:27.307Z,1.50
2022-10-04T05:55:42.902Z,1.60
2022-10-04T06:00:12.985Z,1.60
2022-10-04T06:04:31.944Z,1.70
2022-10-04T06:08:51.749Z,2.00
2022-10-04T06:13:06.071Z,1.60
2022-10-04T06:17:34.138Z,1.40
2022-10-04T06:21:57.422Z,2.10
2022-10-04T06:26:15.824Z,1.50
2022-10-04T06:30:23.980Z,1.70
2022-10-04T06:35:00.393Z,1.60
2022-10-04T06:39:30.156Z,1.70
2022-10-04T06:43:49.435Z,2.30
2022-10-04T06:48:23.052Z,1.70
2022-10-04T06:52:40.152Z,2.10
2022-10-04T06:57:00.371Z,1.80
2022-10-04T07:01:24.544Z,1.90
2022-10-04T07:05:40.568Z,1.90
2022-10-04T07:09:50.845Z,1.90
2022-10-04T07:14:02.270Z,2.50
2022-10-04T07:18:14.430Z,2.10
2022-10-04T07:22:28.058Z,1.90
2022-10-04T07:26:41.113Z,2.00
2022-10-04T07:30:59.592Z,2.30
2022-10-04T07:35:20.704Z,2.10
2022-10-04T07:39:31.644Z,2.50
2022-10-04T07:43:46.942Z,1.90
2022-10-04T07:48:02.630Z,1.60
2022-10-04T07:52:22.180Z,1.90
2022-10-04T07:56:35.541Z,2.10
2022-10-04T08:00:50.168Z,1.90
2022-10-04T08:05:07.102Z,1.90
2022-10-04T08:09:37.875Z,2.10
2022-10-04T08:14:01.702Z,2.10
2022-10-04T08:18:20.326Z,1.90
2022-10-04T08:22:49.939Z,2.00
2022-10-04T08:27:08.817Z,1.80
2022-10-04T08:31:24.918Z,1.60
2022-10-04T08:35:42.473Z,2.10
2022-10-04T08:40:26.867Z,2.00
2022-10-04T08:45:08.032Z,2.10
2022-10-04T08:49:42.889Z,1.80
2022-10-04T08:54:13.854Z,1.90
2022-10-04T08:58:46.604Z,1.80
2022-10-04T09:03:38.293Z,2.00
2022-10-04T09:08:21.098Z,2.10
2022-10-04T09:13:02.918Z,2.30
2022-10-04T09:17:23.240Z,1.70
2022-10-04T09:21:50.340Z,1.60
2022-10-04T09:26:11.858Z,1.80
2022-10-04T09:30:21.431Z,2.40
2022-10-04T09:34:38.948Z,2.00
2022-10-04T09:39:28.600Z,1.40
2022-10-04T09:44:14.069Z,1.60
2022-10-04T09:48:30.060Z,1.60
2022-10-04T09:52:45.744Z,1.60
2022-10-04T09:57:10.500Z,1.60
2022-10-04T10:01:23.338Z,1.40
2022-10-04T10:05:39.936Z,1.50
2022-10-04T10:10:24.865Z,1.90
2022-10-04T10:15:04.768Z,1.60
2022-10-04T10:19:41.132Z,1.50
2022-10-04T10:24:04.749Z,1.60
2022-10-04T10:28:27.520Z,1.70
2022-10-04T10:32:52.581Z,1.30
2022-10-04T10:37:10.825Z,1.30
2022-10-04T10:41:36.035Z,1.50
2022-10-04T10:46:12.268Z,1.30
2022-10-04T10:50:55.657Z,1.20
2022-10-04T10:55:30.856Z,1.20
2022-10-04T11:00:08.142Z,1.40
2022-10-04T11:04:32.169Z,1.80
2022-10-04T11:09:20.083Z,1.90
2022-10-04T11:14:12.881Z,1.50
2022-10-04T11:18:47.948Z,1.90
2022-10-04T11:23:30.060Z,2.00
2022-10-04T11:27:49.729Z,1.80
2022-10-04T11:32:31.057Z,1.60
2022-10-04T11:36:47.178Z,1.40
2022-10-04T11:41:11.270Z,1.60
2022-10-04T11:45:41.299Z,1.70
2022-10-04T11:50:05.425Z,1.30
2022-10-04T11:54:36.987Z,1.60
2022-10-04T11:58:54.207Z,1.40
2022-10-04T12:03:24.908Z,1.30
2022-10-04T12:07:42.456Z,1.50
2022-10-04T12:12:33.808Z,1.30
2022-10-04T12:17:03.584Z,1.00
2022-10-04T12:21:37.147Z,1.10
2022-10-04T12:25:58.805Z,1.20
2022-10-04T12:30:32.235Z,1.40
2022-10-04T12:34:44.591Z,1.20
2022-10-04T12:39:04.154Z,1.10
2022-10-04T12:43:17.817Z,1.20
2022-10-04T12:48:07.049Z,1.10
2022-10-04T12:52:20.521Z,1.30
2022-10-04T12:56:44.671Z,1.30
2022-10-04T13:00:57.730Z,1.50
2022-10-04T13:05:14.944Z,1.30
2022-10-04T13:09:30.320Z,1.20
2022-10-04T13:13:59.618Z,1.30
2022-10-04T13:18:14.191Z,1.50
2022-10-04T13:22:57.245Z,1.20
2022-10-04T13:27:08.941Z,1.20
2022-10-04T13:31:24.628Z,1.30
2022-10-04T13:35:37.100Z,1.50
2022-10-04T13:39:59.287Z,1.60
2022-10-04T13:44:51.529Z,1.10
2022-10-04T13:49:09.098Z,1.30
2022-10-04T13:53:57.200Z,1.20
2022-10-04T13:58:15.707Z,1.30
2022-10-04T14:02:53.233Z,1.40
2022-10-04T14:07:18.867Z,1.60
2022-10-04T14:12:08.032Z,1.40
2022-10-04T14:16:50.348Z,1.40
2022-10-04T14:21:19.531Z,1.40
2022-10-04T14:25:49.459Z,1.40
2022-10-04T14:30:09.393Z,1.50
2022-10-04T14:34:36.345Z,1.50
2022-10-04T14:38:56.301Z,1.60
2022-10-04T14:43:23.811Z,1.70
2022-10-04T14:47:42.841Z,1.60
2022-10-04T14:52:10.140Z,1.50
2022-10-04T14:56:30.048Z,2.20
2022-10-04T15:00:57.289Z,1.40
2022-10-04T15:05:28.707Z,1.80
2022-10-04T15:09:59.223Z,1.80
2022-10-04T15:14:22.196Z,1.80
2022-10-04T15:18:37.922Z,2.10
2022-10-04T15:22:47.670Z,2.50
2022-10-04T15:27:12.751Z,2.40
2022-10-04T15:31:28.185Z,2.30
2022-10-04T15:35:41.445Z,2.00
2022-10-04T15:40:05.466Z,2.30
2022-10-04T15:44:35.192Z,2.70
2022-10-04T15:49:06.383Z,2.40
2022-10-04T15:53:23.737Z,2.90
2022-10-04T15:57:37.863Z,3.20
2022-10-04T16:02:03.988Z,3.70
2022-10-04T16:06:21.067Z,3.70
2022-10-04T16:10:33.036Z,4.50
2022-10-04T16:14:56.594Z,4.50
2022-10-04T16:19:14.971Z,3.90
2022-10-04T16:23:30.398Z,3.30
2022-10-04T16:28:05.710Z,2.70
2022-10-04T16:32:16.735Z,2.30
2022-10-04T16:36:27.274Z,2.60
2022-10-04T16:40:57.722Z,3.20
2022-10-04T16:45:36.676Z,5.00
2022-10-04T16:49:55.468Z,5.20
2022-10-04T16:54:13.902Z,7.30
2022-10-04T16:58:51.006Z,8.10
2022-10-04T17:03:11.550Z,9.20
2022-10-04T17:07:27.035Z,5.90
2022-10-04T17:11:46.616Z,4.90
2022-10-04T17:16:03.073Z,4.00
2022-10-04T17:20:18.921Z,4.10
2022-10-04T17:24:32.665Z,4.70
2022-10-04T17:28:52.231Z,4.60
2022-10-04T17:33:13.652Z,4.70
2022-10-04T17:37:31.105Z,6.00
2022-10-04T17:41:52.275Z,6.80
2022-10-04T17:46:14.039Z,8.20
2022-10-04T17:50:45.410Z,13.60
2022-10-04T17:55:13.615Z,21.20
2022-10-04T17:59:26.279Z,20.80
2022-10-04T18:03:41.919Z,20.30
2022-10-04T18:07:54.768Z,23.10
2022-10-04T18:12:11.722Z,25.20
2022-10-04T18:16:24.455Z,28.70
2022-10-04T18:20:35.761Z,32.30
2022-10-04T18:24:45.682Z,30.40
2022-10-04T18:28:55.330Z,30.50
2022-10-04T18:33:05.491Z,30.80
2022-10-04T18:37:22.567Z,33.50
2022-10-04T18:41:50.423Z,42.10
2022-10-04T18:46:11.214Z,37.00
2022-10-04T18:50:24.801Z,22.20
2022-10-04T18:54:40.977Z,17.50
2022-10-04T18:59:17.243Z,19.10
2022-10-04T19:03:31.212Z,23.60
2022-10-04T19:07:44.984Z,31.50
2022-10-04T19:11:57.321Z,34.70
2022-10-04T19:16:29.019Z,29.10
2022-10-04T19:20:45.349Z,25.60
2022-10-04T19:25:06.310Z,24.90
2022-10-04T19:29:33.977Z,23.20
2022-10-04T19:33:50.144Z,21.60
2022-10-04T19:38:04.272Z,19.50
2022-10-04T19:42:17.698Z,17.40
2022-10-04T19:46:36.664Z,18.00
2022-10-04T19:50:50.048Z,14.70
2022-10-04T19:55:03.552Z,13.50
2022-10-04T19:59:21.147Z,13.00
2022-10-04T20:03:29.486Z,14.10
2022-10-04T20:07:36.865Z,15.80
2022-10-04T20:11:52.336Z,15.80
2022-10-04T20:16:01.001Z,12.50
2022-10-04T20:20:09.190Z,13.80
2022-10-04T20:24:41.060Z,16.70
2022-10-04T20:28:49.159Z,16.70
2022-10-04T20:33:05.537Z,13.10
2022-10-04T20:37:14.727Z,11.90
2022-10-04T20:42:09.892Z,12.60
2022-10-04T20:46:27.502Z,13.50
2022-10-04T20:50:50.602Z,13.30
2022-10-04T20:55:01.982Z,13.00
2022-10-04T20:59:17.970Z,12.50
2022-10-04T21:03:25.591Z,13.20
2022-10-04T21:07:33.561Z,13.80
2022-10-04T21:11:48.313Z,13.80
2022-10-04T21:16:00.745Z,13.20
2022-10-04T21:20:17.331Z,14.00
2022-10-04T21:24:37.834Z,12.90
2022-10-04T21:28:45.809Z,13.80
2022-10-04T21:32:54.196Z,13.30
2022-10-04T21:37:01.124Z,12.50
2022-10-04T21:41:10.910Z,12.90
2022-10-04T21:45:19.160Z,12.10
2022-10-04T21:49:27.078Z,11.10
2022-10-04T21:53:34.378Z,13.40
2022-10-04T21:57:42.553Z,16.10
2022-10-04T22:01:50.234Z,19.30
2022-10-04T22:05:57.482Z,17.30
2022-10-04T22:10:05.271Z,15.70
2022-10-04T22:14:13.005Z,14.40
2022-10-04T22:18:20.533Z,12.40
2022-10-04T22:22:29.652Z,11.90
2022-10-04T22:26:37.329Z,10.90
2022-10-04T22:30:47.498Z,10.30
2022-10-04T22:34:59.298Z,9.70
2022-10-04T22:39:15.590Z,8.80
2022-10-04T22:43:23.166Z,8.40
2022-10-04T22:47:31.121Z,9.20
2022-10-04T22:51:40.844Z,9.60
2022-10-04T22:55:49.369Z,11.10
2022-10-04T22:59:56.877Z,10.30
2022-10-04T23:04:04.364Z,10.50
2022-10-04T23:08:11.709Z,10.30
2022-10-04T23:12:19.491Z,10.70
2022-10-04T23:16:27.297Z,11.10
2022-10-04T23:20:34.856Z,9.80
2022-10-04T23:24:43.298Z,9.50
2022-10-04T23:28:51.053Z,8.50
2022-10-04T23:33:00.708Z,9.20
2022-10-04T23:37:18.794Z,8.40
2022-10-04T23:41:26.474Z,8.70
2022-10-04T23:45:35.535Z,7.90
2022-10-04T23:49:43.898Z,8.20
2022-10-04T23:53:52.363Z,8.10
2022-10-04T23:58:02.853Z,7.30
